PUA161 SULS-SACO
Flight info
| Callsign | PUA161 |
|---|---|
| Flight time | 1h 32m |
| Altitude | 38000 |
| Route | LUCIO UL405 PTA DCT ATOVO UW5 ASISA |
| Aircraft | A320/M-SDE3FGHIRWY/LB1 |
Departure
| Time | 2026-05-05 14:23 |
|---|---|
| Airport | Capitan Corbeta CA Curbelo International Airport (SULS) |
Arrival
| Time | 2026-05-05 15:56 |
|---|---|
| Airport | Ingeniero Aeronáutico Ambrosio L.V. Taravella International Airport (SACO) |
| Time | Latitude | Longitude | Altitude | Speed | Heading |
|---|---|---|---|---|---|
| 2026-05-05 13:55 | -34.85979 | -55.09941 | 100 ft | 0 kts | 161° |
| 2026-05-05 14:15 | -34.85979 | -55.09940 | 100 ft | 0 kts | 161° |
| 2026-05-05 14:16 | -34.85990 | -55.09936 | 99 ft | 3 kts | 161° |
| 2026-05-05 14:16 | -34.85996 | -55.09931 | 100 ft | 0 kts | 141° |
| 2026-05-05 14:16 | -34.85997 | -55.09925 | 100 ft | 4 kts | 117° |
| 2026-05-05 14:16 | -34.85994 | -55.09856 | 100 ft | 12 kts | 71° |
| 2026-05-05 14:17 | -34.85928 | -55.09815 | 100 ft | 13 kts | 341° |
| 2026-05-05 14:17 | -34.85827 | -55.09846 | 100 ft | 16 kts | 2° |
| 2026-05-05 14:17 | -34.85770 | -55.09727 | 101 ft | 19 kts | 71° |
| 2026-05-05 14:17 | -34.85740 | -55.09617 | 101 ft | 22 kts | 73° |
| 2026-05-05 14:18 | -34.85645 | -55.09397 | 103 ft | 18 kts | 355° |
| 2026-05-05 14:18 | -34.85609 | -55.09405 | 103 ft | 0 kts | 4° |
| 2026-05-05 14:19 | -34.85601 | -55.09404 | 103 ft | 3 kts | 4° |
| 2026-05-05 14:19 | -34.85565 | -55.09401 | 103 ft | 7 kts | 4° |
| 2026-05-05 14:19 | -34.85504 | -55.09375 | 104 ft | 13 kts | 51° |
| 2026-05-05 14:20 | -34.85454 | -55.09199 | 101 ft | 26 kts | 73° |
| 2026-05-05 14:20 | -34.85441 | -55.09015 | 99 ft | 13 kts | 84° |
| 2026-05-05 14:20 | -34.85407 | -55.09024 | 100 ft | 9 kts | 267° |
| 2026-05-05 14:20 | -34.85412 | -55.09045 | 100 ft | 0 kts | 252° |
| 2026-05-05 14:22 | -34.85419 | -55.09074 | 100 ft | 25 kts | 252° |
| 2026-05-05 14:23 | -34.85560 | -55.09593 | 103 ft | 100 kts | 252° |
| 2026-05-05 14:23 | -34.85836 | -55.10633 | 110 ft | 154 kts | 252° |
| 2026-05-05 14:23 | -34.86176 | -55.11902 | 693 ft | 158 kts | 253° |
| 2026-05-05 14:23 | -34.86506 | -55.13162 | 1515 ft | 155 kts | 252° |
| 2026-05-05 14:24 | -34.86834 | -55.14422 | 2126 ft | 161 kts | 254° |
| 2026-05-05 14:24 | -34.87195 | -55.15814 | 2474 ft | 184 kts | 254° |
| 2026-05-05 14:24 | -34.87602 | -55.17400 | 2855 ft | 209 kts | 255° |
| 2026-05-05 14:24 | -34.88061 | -55.19185 | 3324 ft | 234 kts | 255° |
| 2026-05-05 14:25 | -34.88570 | -55.21161 | 4016 ft | 251 kts | 255° |
| 2026-05-05 14:25 | -34.89098 | -55.23202 | 5058 ft | 253 kts | 256° |
| 2026-05-05 14:25 | -34.89631 | -55.25247 | 6109 ft | 254 kts | 257° |
| 2026-05-05 14:25 | -34.90168 | -55.27308 | 7065 ft | 257 kts | 256° |
| 2026-05-05 14:26 | -34.90714 | -55.29405 | 7934 ft | 262 kts | 256° |
| 2026-05-05 14:26 | -34.91269 | -55.31545 | 8789 ft | 268 kts | 256° |
| 2026-05-05 14:26 | -34.91836 | -55.33735 | 9627 ft | 274 kts | 255° |
| 2026-05-05 14:26 | -34.92417 | -55.35975 | 10315 ft | 284 kts | 255° |
| 2026-05-05 14:27 | -34.93029 | -55.38364 | 10591 ft | 307 kts | 255° |
| 2026-05-05 14:27 | -34.93682 | -55.40907 | 11092 ft | 319 kts | 255° |
| 2026-05-05 14:27 | -34.94351 | -55.43501 | 11819 ft | 323 kts | 255° |
| 2026-05-05 14:27 | -34.95028 | -55.46127 | 12619 ft | 326 kts | 255° |
| 2026-05-05 14:28 | -34.95709 | -55.48770 | 13417 ft | 328 kts | 256° |
| 2026-05-05 14:28 | -34.96395 | -55.51434 | 14164 ft | 331 kts | 256° |
| 2026-05-05 14:28 | -34.97082 | -55.54110 | 14893 ft | 331 kts | 256° |
| 2026-05-05 14:28 | -34.97770 | -55.56792 | 15653 ft | 331 kts | 255° |
| 2026-05-05 14:29 | -34.98455 | -55.59464 | 16411 ft | 331 kts | 255° |
| 2026-05-05 14:29 | -34.99141 | -55.62152 | 17168 ft | 331 kts | 255° |
| 2026-05-05 14:29 | -34.99824 | -55.64831 | 17938 ft | 331 kts | 255° |
| 2026-05-05 14:29 | -35.00508 | -55.67514 | 18641 ft | 332 kts | 255° |
| 2026-05-05 14:30 | -35.01170 | -55.70113 | 19244 ft | 333 kts | 255° |
| 2026-05-05 14:30 | -35.01820 | -55.72657 | 19823 ft | 336 kts | 255° |
| 2026-05-05 14:30 | -35.02518 | -55.75386 | 20427 ft | 338 kts | 255° |
| 2026-05-05 14:30 | -35.03219 | -55.78138 | 21002 ft | 341 kts | 255° |
| 2026-05-05 14:31 | -35.03921 | -55.80911 | 21575 ft | 344 kts | 255° |
| 2026-05-05 14:31 | -35.04629 | -55.83711 | 22116 ft | 346 kts | 255° |
| 2026-05-05 14:31 | -35.05216 | -55.86566 | 22655 ft | 348 kts | 263° |
| 2026-05-05 14:31 | -35.05347 | -55.89514 | 23177 ft | 350 kts | 272° |
| 2026-05-05 14:32 | -35.05152 | -55.92486 | 23705 ft | 353 kts | 274° |
| 2026-05-05 14:32 | -35.04945 | -55.95481 | 24146 ft | 356 kts | 274° |
| 2026-05-05 14:32 | -35.04739 | -55.98497 | 24567 ft | 359 kts | 274° |
| 2026-05-05 14:32 | -35.04530 | -56.01588 | 24996 ft | 362 kts | 274° |
| 2026-05-05 14:33 | -35.04325 | -56.04622 | 25406 ft | 365 kts | 274° |
| 2026-05-05 14:33 | -35.04115 | -56.07719 | 25825 ft | 368 kts | 274° |
| 2026-05-05 14:33 | -35.03902 | -56.10886 | 26243 ft | 371 kts | 274° |
| 2026-05-05 14:33 | -35.03693 | -56.13991 | 26652 ft | 374 kts | 274° |
| 2026-05-05 14:34 | -35.03474 | -56.17212 | 27064 ft | 377 kts | 274° |
| 2026-05-05 14:34 | -35.03254 | -56.20370 | 27458 ft | 380 kts | 274° |
| 2026-05-05 14:34 | -35.03028 | -56.23595 | 27855 ft | 383 kts | 274° |
| 2026-05-05 14:34 | -35.02797 | -56.26841 | 28258 ft | 386 kts | 274° |
| 2026-05-05 14:35 | -35.02563 | -56.30116 | 28665 ft | 389 kts | 274° |
| 2026-05-05 14:35 | -35.02327 | -56.33418 | 29067 ft | 392 kts | 274° |
| 2026-05-05 14:35 | -35.02084 | -56.36784 | 29472 ft | 395 kts | 274° |
| 2026-05-05 14:35 | -35.01844 | -56.40139 | 29869 ft | 398 kts | 274° |
| 2026-05-05 14:36 | -35.01604 | -56.43510 | 30238 ft | 401 kts | 274° |
| 2026-05-05 14:36 | -35.01357 | -56.46904 | 30585 ft | 403 kts | 274° |
| 2026-05-05 14:36 | -35.01109 | -56.50321 | 30935 ft | 406 kts | 274° |
| 2026-05-05 14:36 | -35.00859 | -56.53764 | 31278 ft | 408 kts | 274° |
| 2026-05-05 14:37 | -35.00605 | -56.57218 | 31623 ft | 410 kts | 274° |
| 2026-05-05 14:37 | -35.00349 | -56.60688 | 31984 ft | 412 kts | 274° |
| 2026-05-05 14:37 | -35.00094 | -56.64158 | 32484 ft | 410 kts | 274° |
| 2026-05-05 14:37 | -34.99837 | -56.67618 | 32991 ft | 409 kts | 274° |
| 2026-05-05 14:38 | -34.99583 | -56.71063 | 33495 ft | 407 kts | 274° |
| 2026-05-05 14:38 | -34.99329 | -56.74499 | 34007 ft | 406 kts | 274° |
| 2026-05-05 14:38 | -34.99074 | -56.77926 | 34440 ft | 405 kts | 274° |
| 2026-05-05 14:38 | -34.98817 | -56.81334 | 34907 ft | 403 kts | 274° |
| 2026-05-05 14:39 | -34.98559 | -56.84733 | 35359 ft | 401 kts | 274° |
| 2026-05-05 14:39 | -34.98310 | -56.88106 | 35806 ft | 398 kts | 272° |
| 2026-05-05 14:39 | -34.98271 | -56.91470 | 36234 ft | 396 kts | 269° |
| 2026-05-05 14:39 | -34.98262 | -56.94819 | 36659 ft | 394 kts | 270° |
| 2026-05-05 14:40 | -34.98250 | -56.98151 | 37077 ft | 392 kts | 270° |
| 2026-05-05 14:40 | -34.98234 | -57.01477 | 37482 ft | 391 kts | 270° |
| 2026-05-05 14:40 | -34.98214 | -57.04781 | 37878 ft | 389 kts | 270° |
| 2026-05-05 14:40 | -34.98192 | -57.08078 | 38023 ft | 388 kts | 270° |
| 2026-05-05 14:41 | -34.98158 | -57.14639 | 38037 ft | 386 kts | 270° |
| 2026-05-05 14:41 | -34.98127 | -57.21187 | 38034 ft | 386 kts | 270° |
| 2026-05-05 14:42 | -34.98097 | -57.27727 | 38031 ft | 386 kts | 270° |
| 2026-05-05 14:42 | -34.98058 | -57.34264 | 38026 ft | 386 kts | 270° |
| 2026-05-05 14:43 | -34.98015 | -57.40806 | 38033 ft | 386 kts | 270° |
| 2026-05-05 14:43 | -34.97971 | -57.47354 | 38037 ft | 386 kts | 270° |
| 2026-05-05 14:44 | -34.97923 | -57.53905 | 38049 ft | 387 kts | 270° |
| 2026-05-05 14:44 | -34.97874 | -57.60462 | 38054 ft | 387 kts | 270° |
| 2026-05-05 14:45 | -34.97816 | -57.67012 | 38066 ft | 386 kts | 270° |
| 2026-05-05 14:45 | -34.97759 | -57.73564 | 38071 ft | 386 kts | 270° |
| 2026-05-05 14:46 | -34.97695 | -57.80116 | 38074 ft | 386 kts | 270° |
| 2026-05-05 14:46 | -34.97426 | -57.86642 | 38074 ft | 387 kts | 279° |
| 2026-05-05 14:47 | -34.96661 | -57.89788 | 38076 ft | 390 kts | 290° |
| 2026-05-05 14:47 | -34.95375 | -57.92719 | 38077 ft | 395 kts | 300° |
| 2026-05-05 14:47 | -34.91805 | -57.97867 | 38067 ft | 399 kts | 306° |
| 2026-05-05 14:48 | -34.88139 | -58.02951 | 38053 ft | 399 kts | 306° |
| 2026-05-05 14:48 | -34.84474 | -58.08042 | 38048 ft | 400 kts | 306° |
| 2026-05-05 14:49 | -34.80810 | -58.13127 | 38039 ft | 400 kts | 306° |
| 2026-05-05 14:49 | -34.77139 | -58.18201 | 38027 ft | 399 kts | 306° |
| 2026-05-05 14:50 | -34.73471 | -58.23274 | 38033 ft | 399 kts | 306° |
| 2026-05-05 14:50 | -34.69804 | -58.28343 | 38038 ft | 399 kts | 306° |
| 2026-05-05 14:51 | -34.66131 | -58.33402 | 38041 ft | 399 kts | 306° |
| 2026-05-05 14:51 | -34.62461 | -58.38447 | 38043 ft | 398 kts | 306° |
| 2026-05-05 14:52 | -34.58792 | -58.43484 | 38045 ft | 398 kts | 305° |
| 2026-05-05 14:52 | -34.55130 | -58.48510 | 38042 ft | 397 kts | 305° |
| 2026-05-05 14:53 | -34.51465 | -58.53521 | 38047 ft | 397 kts | 305° |
| 2026-05-05 14:53 | -34.47805 | -58.58536 | 38046 ft | 397 kts | 305° |
| 2026-05-05 14:54 | -34.44145 | -58.63530 | 38047 ft | 396 kts | 305° |
| 2026-05-05 14:54 | -34.40488 | -58.68517 | 38050 ft | 396 kts | 305° |
| 2026-05-05 14:55 | -34.36833 | -58.73493 | 38044 ft | 395 kts | 305° |
| 2026-05-05 14:55 | -34.33177 | -58.78463 | 38038 ft | 395 kts | 305° |
| 2026-05-05 14:56 | -34.29525 | -58.83423 | 38030 ft | 394 kts | 305° |
| 2026-05-05 14:56 | -34.26474 | -58.87567 | 38026 ft | 394 kts | 305° |
| 2026-05-05 14:57 | -34.22855 | -58.92468 | 38017 ft | 393 kts | 305° |
| 2026-05-05 14:57 | -34.19186 | -58.97430 | 38023 ft | 393 kts | 305° |
| 2026-05-05 14:58 | -34.15546 | -59.02346 | 38012 ft | 392 kts | 305° |
| 2026-05-05 14:58 | -34.11909 | -59.07245 | 38007 ft | 392 kts | 305° |
| 2026-05-05 14:59 | -34.08273 | -59.12139 | 38016 ft | 391 kts | 305° |
| 2026-05-05 14:59 | -34.04660 | -59.17031 | 38012 ft | 390 kts | 304° |
| 2026-05-05 15:00 | -34.01766 | -59.21186 | 38012 ft | 388 kts | 303° |
| 2026-05-05 15:00 | -33.97765 | -59.27062 | 38008 ft | 388 kts | 303° |
| 2026-05-05 15:01 | -33.94324 | -59.32058 | 38016 ft | 387 kts | 303° |
| 2026-05-05 15:01 | -33.90862 | -59.37028 | 38007 ft | 387 kts | 303° |
| 2026-05-05 15:02 | -33.87398 | -59.41986 | 38012 ft | 387 kts | 303° |
| 2026-05-05 15:02 | -33.83942 | -59.46938 | 38005 ft | 386 kts | 303° |
| 2026-05-05 15:03 | -33.80494 | -59.51884 | 38002 ft | 386 kts | 303° |
| 2026-05-05 15:03 | -33.77038 | -59.56820 | 37999 ft | 386 kts | 303° |
| 2026-05-05 15:04 | -33.73581 | -59.61742 | 38001 ft | 385 kts | 303° |
| 2026-05-05 15:04 | -33.70129 | -59.66663 | 37996 ft | 385 kts | 303° |
| 2026-05-05 15:05 | -33.64948 | -59.74023 | 37997 ft | 384 kts | 303° |
| 2026-05-05 15:06 | -33.61498 | -59.78916 | 37992 ft | 384 kts | 303° |
| 2026-05-05 15:06 | -33.58045 | -59.83799 | 37991 ft | 384 kts | 303° |
| 2026-05-05 15:07 | -33.54590 | -59.88677 | 37993 ft | 384 kts | 303° |
| 2026-05-05 15:07 | -33.51141 | -59.93558 | 37986 ft | 383 kts | 303° |
| 2026-05-05 15:08 | -33.47695 | -59.98424 | 37989 ft | 383 kts | 303° |
| 2026-05-05 15:08 | -33.44240 | -60.03282 | 37997 ft | 383 kts | 303° |
| 2026-05-05 15:09 | -33.40788 | -60.08129 | 37993 ft | 382 kts | 303° |
| 2026-05-05 15:09 | -33.37340 | -60.12975 | 37987 ft | 382 kts | 303° |
| 2026-05-05 15:10 | -33.33896 | -60.17803 | 37985 ft | 382 kts | 303° |
| 2026-05-05 15:10 | -33.30444 | -60.22632 | 37988 ft | 382 kts | 303° |
| 2026-05-05 15:11 | -33.26997 | -60.27452 | 37989 ft | 381 kts | 303° |
| 2026-05-05 15:11 | -33.23557 | -60.32272 | 37981 ft | 381 kts | 303° |
| 2026-05-05 15:12 | -33.20118 | -60.37079 | 37979 ft | 380 kts | 303° |
| 2026-05-05 15:12 | -33.16676 | -60.41880 | 37981 ft | 380 kts | 303° |
| 2026-05-05 15:13 | -33.13236 | -60.46667 | 37978 ft | 380 kts | 303° |
| 2026-05-05 15:13 | -33.09793 | -60.51445 | 37976 ft | 380 kts | 303° |
| 2026-05-05 15:14 | -33.06345 | -60.56216 | 37980 ft | 379 kts | 303° |
| 2026-05-05 15:14 | -33.02907 | -60.60981 | 37978 ft | 379 kts | 303° |
| 2026-05-05 15:15 | -32.99474 | -60.65742 | 37980 ft | 378 kts | 303° |
| 2026-05-05 15:15 | -32.96043 | -60.70493 | 37979 ft | 378 kts | 303° |
| 2026-05-05 15:16 | -32.92607 | -60.75231 | 37974 ft | 378 kts | 303° |
| 2026-05-05 15:16 | -32.89485 | -60.80178 | 37973 ft | 369 kts | 294° |
| 2026-05-05 15:17 | -32.86892 | -60.85442 | 37974 ft | 369 kts | 294° |
| 2026-05-05 15:17 | -32.84292 | -60.90707 | 37971 ft | 369 kts | 294° |
| 2026-05-05 15:18 | -32.81690 | -60.95972 | 37973 ft | 369 kts | 294° |
| 2026-05-05 15:18 | -32.79089 | -61.01235 | 37966 ft | 369 kts | 294° |
| 2026-05-05 15:19 | -32.76484 | -61.06494 | 37968 ft | 369 kts | 294° |
| 2026-05-05 15:19 | -32.73868 | -61.11750 | 37965 ft | 369 kts | 294° |
| 2026-05-05 15:20 | -32.71254 | -61.16996 | 37963 ft | 369 kts | 294° |
| 2026-05-05 15:20 | -32.68642 | -61.22253 | 37964 ft | 369 kts | 294° |
| 2026-05-05 15:21 | -32.66023 | -61.27504 | 37964 ft | 370 kts | 294° |
| 2026-05-05 15:21 | -32.63401 | -61.32749 | 37965 ft | 370 kts | 294° |
| 2026-05-05 15:22 | -32.60773 | -61.38000 | 37970 ft | 370 kts | 294° |
| 2026-05-05 15:22 | -32.58146 | -61.43246 | 37969 ft | 370 kts | 295° |
| 2026-05-05 15:23 | -32.55516 | -61.48484 | 37966 ft | 370 kts | 295° |
| 2026-05-05 15:23 | -32.52886 | -61.53719 | 37964 ft | 370 kts | 295° |
| 2026-05-05 15:24 | -32.50256 | -61.58942 | 37965 ft | 369 kts | 295° |
| 2026-05-05 15:24 | -32.47622 | -61.64168 | 37965 ft | 369 kts | 295° |
| 2026-05-05 15:25 | -32.44990 | -61.69384 | 37963 ft | 369 kts | 295° |
| 2026-05-05 15:25 | -32.42365 | -61.74600 | 37964 ft | 368 kts | 295° |
| 2026-05-05 15:26 | -32.39736 | -61.79807 | 37962 ft | 368 kts | 295° |
| 2026-05-05 15:26 | -32.37096 | -61.84999 | 37963 ft | 369 kts | 295° |
| 2026-05-05 15:27 | -32.34456 | -61.90193 | 37965 ft | 368 kts | 295° |
| 2026-05-05 15:27 | -32.31819 | -61.95385 | 37958 ft | 368 kts | 295° |
| 2026-05-05 15:28 | -32.29186 | -62.00574 | 37957 ft | 368 kts | 295° |
| 2026-05-05 15:28 | -32.26552 | -62.05753 | 37956 ft | 367 kts | 295° |
| 2026-05-05 15:29 | -32.23928 | -62.10924 | 37959 ft | 367 kts | 295° |
| 2026-05-05 15:29 | -32.21299 | -62.16087 | 37956 ft | 366 kts | 295° |
| 2026-05-05 15:30 | -32.18662 | -62.21236 | 37959 ft | 366 kts | 295° |
| 2026-05-05 15:30 | -32.16023 | -62.26375 | 37955 ft | 366 kts | 295° |
| 2026-05-05 15:31 | -32.13386 | -62.31522 | 37958 ft | 366 kts | 295° |
| 2026-05-05 15:31 | -32.10750 | -62.36667 | 37581 ft | 369 kts | 295° |
| 2026-05-05 15:31 | -32.09406 | -62.39297 | 36495 ft | 380 kts | 295° |
| 2026-05-05 15:32 | -32.08020 | -62.42003 | 35526 ft | 388 kts | 296° |
| 2026-05-05 15:32 | -32.06616 | -62.44734 | 34790 ft | 390 kts | 296° |
| 2026-05-05 15:32 | -32.05204 | -62.47471 | 34104 ft | 391 kts | 297° |
| 2026-05-05 15:32 | -32.03786 | -62.50215 | 33407 ft | 392 kts | 297° |
| 2026-05-05 15:33 | -32.02369 | -62.52950 | 32764 ft | 390 kts | 297° |
| 2026-05-05 15:33 | -32.00962 | -62.55666 | 32153 ft | 387 kts | 297° |
| 2026-05-05 15:33 | -31.99566 | -62.58369 | 31553 ft | 385 kts | 297° |
| 2026-05-05 15:33 | -31.98182 | -62.61054 | 30966 ft | 382 kts | 297° |
| 2026-05-05 15:34 | -31.97252 | -62.62860 | 30565 ft | 381 kts | 297° |
| 2026-05-05 15:34 | -31.95884 | -62.65522 | 29983 ft | 379 kts | 297° |
| 2026-05-05 15:34 | -31.94520 | -62.68168 | 29332 ft | 377 kts | 297° |
| 2026-05-05 15:34 | -31.93171 | -62.70774 | 28918 ft | 369 kts | 298° |
| 2026-05-05 15:35 | -31.91842 | -62.73333 | 28506 ft | 362 kts | 298° |
| 2026-05-05 15:35 | -31.90539 | -62.75838 | 28121 ft | 356 kts | 298° |
| 2026-05-05 15:35 | -31.88845 | -62.79096 | 27612 ft | 348 kts | 298° |
| 2026-05-05 15:35 | -31.87997 | -62.80731 | 27368 ft | 345 kts | 298° |
| 2026-05-05 15:36 | -31.86757 | -62.83121 | 27004 ft | 340 kts | 298° |
| 2026-05-05 15:36 | -31.85529 | -62.85485 | 26649 ft | 336 kts | 298° |
| 2026-05-05 15:36 | -31.84319 | -62.87810 | 26297 ft | 332 kts | 298° |
| 2026-05-05 15:36 | -31.83123 | -62.90109 | 25949 ft | 328 kts | 298° |
| 2026-05-05 15:37 | -31.81940 | -62.92378 | 25597 ft | 323 kts | 298° |
| 2026-05-05 15:37 | -31.80771 | -62.94619 | 25236 ft | 320 kts | 298° |
| 2026-05-05 15:37 | -31.79615 | -62.96837 | 24887 ft | 316 kts | 298° |
| 2026-05-05 15:37 | -31.78469 | -62.99032 | 24537 ft | 313 kts | 298° |
| 2026-05-05 15:38 | -31.77335 | -63.01206 | 24169 ft | 311 kts | 298° |
| 2026-05-05 15:38 | -31.76206 | -63.03371 | 23809 ft | 310 kts | 298° |
| 2026-05-05 15:38 | -31.75081 | -63.05529 | 23443 ft | 309 kts | 298° |
| 2026-05-05 15:38 | -31.73959 | -63.07679 | 23023 ft | 307 kts | 298° |
| 2026-05-05 15:39 | -31.72847 | -63.09808 | 22649 ft | 304 kts | 298° |
| 2026-05-05 15:39 | -31.71744 | -63.11918 | 22272 ft | 303 kts | 298° |
| 2026-05-05 15:39 | -31.70640 | -63.14019 | 21898 ft | 301 kts | 298° |
| 2026-05-05 15:39 | -31.69544 | -63.16108 | 21524 ft | 300 kts | 298° |
| 2026-05-05 15:40 | -31.68452 | -63.18189 | 21156 ft | 299 kts | 298° |
| 2026-05-05 15:40 | -31.67363 | -63.20266 | 20773 ft | 298 kts | 298° |
| 2026-05-05 15:40 | -31.66400 | -63.22405 | 20396 ft | 295 kts | 290° |
| 2026-05-05 15:40 | -31.65615 | -63.24635 | 19980 ft | 296 kts | 290° |
| 2026-05-05 15:41 | -31.64827 | -63.26875 | 19564 ft | 297 kts | 290° |
| 2026-05-05 15:41 | -31.64036 | -63.29120 | 19148 ft | 298 kts | 290° |
| 2026-05-05 15:41 | -31.63240 | -63.31374 | 18728 ft | 300 kts | 290° |
| 2026-05-05 15:41 | -31.62442 | -63.33630 | 18449 ft | 296 kts | 290° |
| 2026-05-05 15:42 | -31.61658 | -63.35840 | 18210 ft | 292 kts | 290° |
| 2026-05-05 15:42 | -31.60878 | -63.38035 | 17859 ft | 290 kts | 290° |
| 2026-05-05 15:42 | -31.60102 | -63.40216 | 17507 ft | 289 kts | 290° |
| 2026-05-05 15:42 | -31.59333 | -63.42389 | 17162 ft | 288 kts | 290° |
| 2026-05-05 15:43 | -31.58569 | -63.44553 | 16819 ft | 287 kts | 290° |
| 2026-05-05 15:43 | -31.57808 | -63.46704 | 16481 ft | 286 kts | 290° |
| 2026-05-05 15:43 | -31.57043 | -63.48857 | 16141 ft | 285 kts | 290° |
| 2026-05-05 15:43 | -31.56282 | -63.50997 | 15823 ft | 284 kts | 290° |
| 2026-05-05 15:44 | -31.55521 | -63.53129 | 15501 ft | 283 kts | 290° |
| 2026-05-05 15:44 | -31.54762 | -63.55251 | 15177 ft | 282 kts | 290° |
| 2026-05-05 15:44 | -31.54005 | -63.57367 | 14853 ft | 281 kts | 290° |
| 2026-05-05 15:44 | -31.53251 | -63.59475 | 14547 ft | 280 kts | 290° |
| 2026-05-05 15:45 | -31.52502 | -63.61578 | 14242 ft | 279 kts | 290° |
| 2026-05-05 15:45 | -31.51757 | -63.63670 | 13931 ft | 278 kts | 290° |
| 2026-05-05 15:45 | -31.51018 | -63.65745 | 13370 ft | 275 kts | 290° |
| 2026-05-05 15:45 | -31.50281 | -63.67806 | 12742 ft | 274 kts | 290° |
| 2026-05-05 15:46 | -31.49675 | -63.69502 | 12243 ft | 273 kts | 290° |
| 2026-05-05 15:46 | -31.48943 | -63.71551 | 11648 ft | 272 kts | 291° |
| 2026-05-05 15:46 | -31.48213 | -63.73592 | 11097 ft | 271 kts | 291° |
| 2026-05-05 15:46 | -31.47480 | -63.75635 | 10697 ft | 272 kts | 291° |
| 2026-05-05 15:47 | -31.46764 | -63.77624 | 10476 ft | 257 kts | 291° |
| 2026-05-05 15:47 | -31.46311 | -63.78884 | 10311 ft | 251 kts | 291° |
| 2026-05-05 15:47 | -31.45407 | -63.81400 | 10242 ft | 250 kts | 291° |
| 2026-05-05 15:47 | -31.44735 | -63.83279 | 10162 ft | 250 kts | 290° |
| 2026-05-05 15:48 | -31.44302 | -63.85237 | 10032 ft | 249 kts | 276° |
| 2026-05-05 15:48 | -31.44201 | -63.87289 | 9532 ft | 257 kts | 272° |
| 2026-05-05 15:48 | -31.44120 | -63.89360 | 9270 ft | 252 kts | 272° |
| 2026-05-05 15:48 | -31.44040 | -63.91395 | 8819 ft | 250 kts | 272° |
| 2026-05-05 15:49 | -31.43960 | -63.93430 | 8264 ft | 250 kts | 272° |
| 2026-05-05 15:49 | -31.43879 | -63.95468 | 7703 ft | 251 kts | 272° |
| 2026-05-05 15:49 | -31.43797 | -63.97502 | 7209 ft | 249 kts | 273° |
| 2026-05-05 15:49 | -31.43716 | -63.99520 | 6754 ft | 247 kts | 273° |
| 2026-05-05 15:50 | -31.43632 | -64.01516 | 6304 ft | 245 kts | 274° |
| 2026-05-05 15:50 | -31.43549 | -64.03504 | 5835 ft | 244 kts | 274° |
| 2026-05-05 15:50 | -31.43473 | -64.05480 | 5392 ft | 241 kts | 273° |
| 2026-05-05 15:50 | -31.43450 | -64.07432 | 4954 ft | 239 kts | 272° |
| 2026-05-05 15:51 | -31.43453 | -64.09367 | 4507 ft | 236 kts | 271° |
| 2026-05-05 15:51 | -31.43466 | -64.11223 | 4388 ft | 216 kts | 271° |
| 2026-05-05 15:51 | -31.43479 | -64.12921 | 4334 ft | 202 kts | 271° |
| 2026-05-05 15:51 | -31.43487 | -64.14457 | 4270 ft | 177 kts | 272° |
| 2026-05-05 15:52 | -31.43291 | -64.15761 | 4210 ft | 153 kts | 293° |
| 2026-05-05 15:52 | -31.42754 | -64.16780 | 4068 ft | 145 kts | 313° |
| 2026-05-05 15:52 | -31.41986 | -64.17487 | 3826 ft | 139 kts | 331° |
| 2026-05-05 15:52 | -31.41155 | -64.18059 | 3609 ft | 138 kts | 330° |
| 2026-05-05 15:53 | -31.40331 | -64.18633 | 3404 ft | 138 kts | 330° |
| 2026-05-05 15:53 | -31.39510 | -64.19204 | 3206 ft | 137 kts | 330° |
| 2026-05-05 15:53 | -31.38691 | -64.19776 | 2993 ft | 137 kts | 330° |
| 2026-05-05 15:53 | -31.37869 | -64.20348 | 2784 ft | 138 kts | 330° |
| 2026-05-05 15:54 | -31.36972 | -64.20720 | 2573 ft | 137 kts | 353° |
| 2026-05-05 15:54 | -31.36021 | -64.20755 | 2368 ft | 137 kts | 359° |
| 2026-05-05 15:54 | -31.35072 | -64.20765 | 2161 ft | 135 kts | 1° |
| 2026-05-05 15:54 | -31.34127 | -64.20778 | 1981 ft | 136 kts | 359° |
| 2026-05-05 15:55 | -31.33186 | -64.20797 | 1787 ft | 135 kts | 359° |
| 2026-05-05 15:55 | -31.32256 | -64.20813 | 1585 ft | 131 kts | 359° |
| 2026-05-05 15:55 | -31.31524 | -64.20824 | 1576 ft | 90 kts | 359° |
| 2026-05-05 15:55 | -31.31014 | -64.20832 | 1574 ft | 60 kts | 359° |
| 2026-05-05 15:56 | -31.30659 | -64.20836 | 1575 ft | 39 kts | 0° |
| 2026-05-05 15:56 | -31.30533 | -64.20842 | 1575 ft | 9 kts | 300° |
| 2026-05-05 15:56 | -31.30573 | -64.20849 | 1575 ft | 15 kts | 155° |
| 2026-05-05 15:56 | -31.30728 | -64.20838 | 1574 ft | 26 kts | 181° |
| 2026-05-05 15:57 | -31.30920 | -64.20839 | 1574 ft | 29 kts | 179° |
| 2026-05-05 15:57 | -31.31129 | -64.20837 | 1574 ft | 31 kts | 179° |
| 2026-05-05 15:57 | -31.31352 | -64.20831 | 1575 ft | 33 kts | 182° |
| 2026-05-05 15:57 | -31.31465 | -64.20941 | 1575 ft | 23 kts | 270° |
| 2026-05-05 15:58 | -31.31496 | -64.21068 | 1575 ft | 13 kts | 223° |
| 2026-05-05 15:58 | -31.31550 | -64.21141 | 1575 ft | 14 kts | 272° |
| 2026-05-05 15:58 | -31.31549 | -64.21169 | 1575 ft | 0 kts | 271° |